createdAt,value
2023-03-26T00:01:58.379Z,97061.47
2023-03-26T00:07:00.116Z,97065.94
2023-03-26T00:12:01.420Z,97073.84
2023-03-26T00:17:02.749Z,97067.19
2023-03-26T00:22:04.003Z,97083.22
2023-03-26T00:27:05.666Z,97080.75
2023-03-26T00:32:06.932Z,97082.00
2023-03-26T00:37:08.839Z,97068.34
2023-03-26T00:42:10.127Z,97077.56
2023-03-26T00:47:11.388Z,97071.06
2023-03-26T00:52:12.668Z,97063.13
2023-03-26T00:57:22.628Z,97073.41
2023-03-26T01:02:30.618Z,97069.41
2023-03-26T01:07:32.170Z,97065.38
2023-03-26T01:12:33.486Z,97056.47
2023-03-26T01:17:38.033Z,97062.38
2023-03-26T01:22:39.388Z,97057.59
2023-03-26T01:27:41.110Z,97051.72
2023-03-26T01:32:44.083Z,97054.50
2023-03-26T01:37:46.803Z,97057.75
2023-03-26T01:42:48.087Z,97045.59
2023-03-26T01:47:49.342Z,97048.63
2023-03-26T01:52:50.666Z,97048.00
2023-03-26T01:57:51.882Z,97047.38
2023-03-26T02:02:54.958Z,97040.75
2023-03-26T02:07:58.515Z,97032.00
2023-03-26T02:12:59.832Z,97040.53
2023-03-26T02:18:01.938Z,97046.59
2023-03-26T02:23:03.963Z,97037.38
2023-03-26T02:28:05.845Z,97022.66
2023-03-26T02:33:07.142Z,97020.44
2023-03-26T02:38:10.121Z,97029.06
2023-03-26T02:43:11.550Z,97030.69
2023-03-26T02:48:12.987Z,97020.97
2023-03-26T02:53:14.279Z,97013.97
2023-03-26T02:58:20.067Z,97012.94
2023-03-26T03:03:24.374Z,97011.03
2023-03-26T03:08:26.394Z,97002.88
2023-03-26T03:13:27.802Z,96989.09
2023-03-26T03:18:29.058Z,96981.09
2023-03-26T03:23:30.439Z,96984.91
2023-03-26T03:28:31.710Z,96984.91
2023-03-26T03:33:32.965Z,96988.19
2023-03-26T03:38:34.225Z,96994.13
2023-03-26T03:43:35.616Z,97000.75
2023-03-26T03:48:40.157Z,96996.22
2023-03-26T03:53:41.643Z,96993.00
2023-03-26T03:58:45.474Z,96984.25
2023-03-26T04:03:47.125Z,96972.88
2023-03-26T04:08:48.622Z,96970.09
2023-03-26T04:13:49.876Z,96963.94
2023-03-26T04:18:51.172Z,96969.81
2023-03-26T04:23:54.243Z,96972.84
2023-03-26T04:28:55.540Z,96979.41
2023-03-26T04:33:56.835Z,96976.56
2023-03-26T04:38:58.531Z,96981.75
2023-03-26T04:44:01.876Z,96993.47
2023-03-26T04:49:03.335Z,96985.78
2023-03-26T04:54:05.989Z,96983.56
2023-03-26T04:59:08.055Z,96990.66
2023-03-26T05:04:09.348Z,97001.94
2023-03-26T05:09:10.701Z,96997.69
2023-03-26T05:14:12.001Z,97000.34
2023-03-26T05:19:13.262Z,96992.16
2023-03-26T05:24:14.481Z,96985.78
2023-03-26T05:29:16.082Z,96992.84
2023-03-26T05:34:17.440Z,96992.38
2023-03-26T05:39:18.718Z,96991.00
2023-03-26T05:44:20.088Z,96983.25
2023-03-26T05:49:21.360Z,96985.84
2023-03-26T05:54:22.608Z,96985.47
2023-03-26T05:59:23.938Z,96977.34
2023-03-26T06:04:25.426Z,96963.75
2023-03-26T06:09:26.844Z,96954.09
2023-03-26T06:14:28.361Z,96961.75
2023-03-26T06:19:29.678Z,96945.34
2023-03-26T06:24:30.951Z,96934.16
2023-03-26T06:29:32.227Z,96928.09
2023-03-26T06:34:33.480Z,96917.03
2023-03-26T06:39:34.781Z,96914.66
2023-03-26T06:44:36.126Z,96911.94
2023-03-26T06:49:38.174Z,96909.41
2023-03-26T06:54:39.577Z,96902.75
2023-03-26T06:59:41.004Z,96888.63
2023-03-26T07:04:42.219Z,96882.09
2023-03-26T07:09:43.445Z,96877.94
2023-03-26T07:14:44.720Z,96873.00
2023-03-26T07:19:46.060Z,96868.47
2023-03-26T07:24:47.300Z,96852.69
2023-03-26T07:29:48.610Z,96831.22
2023-03-26T07:34:49.989Z,96830.75
2023-03-26T07:39:51.214Z,96825.13
2023-03-26T07:44:52.623Z,96813.63
2023-03-26T07:49:53.931Z,96814.16
2023-03-26T07:54:55.215Z,96813.00
2023-03-26T07:59:56.524Z,96800.31
2023-03-26T08:04:57.858Z,96785.41
2023-03-26T08:09:59.163Z,96772.53
2023-03-26T08:15:00.584Z,96766.63
2023-03-26T08:20:02.460Z,96762.09
2023-03-26T08:25:03.951Z,96745.72
2023-03-26T08:30:05.229Z,96735.75
2023-03-26T08:35:06.604Z,96725.56
2023-03-26T08:40:07.968Z,96732.50
2023-03-26T08:45:09.257Z,96723.16
2023-03-26T08:50:10.549Z,96714.00
2023-03-26T08:55:11.825Z,96702.63
2023-03-26T09:00:13.222Z,96699.91
2023-03-26T09:05:14.625Z,96685.03
2023-03-26T09:10:16.022Z,96669.09
2023-03-26T09:15:17.321Z,96669.69
2023-03-26T09:20:18.610Z,96670.19
2023-03-26T09:25:19.963Z,96661.13
2023-03-26T09:30:21.239Z,96637.13
2023-03-26T09:35:22.531Z,96616.91
2023-03-26T09:40:23.747Z,96576.06
2023-03-26T09:45:25.021Z,96569.47
2023-03-26T09:50:26.453Z,96555.06
2023-03-26T09:55:28.162Z,96557.91
2023-03-26T10:00:29.578Z,96561.78
2023-03-26T10:05:31.322Z,96575.56
2023-03-26T10:10:32.591Z,96572.31
2023-03-26T10:15:33.804Z,96566.13
2023-03-26T10:20:35.410Z,96560.84
2023-03-26T10:25:36.621Z,96556.81
2023-03-26T10:30:37.866Z,96569.09
2023-03-26T10:35:39.181Z,96570.63
2023-03-26T10:40:42.877Z,96580.91
2023-03-26T10:45:44.139Z,96580.06
2023-03-26T10:50:45.431Z,96592.56
2023-03-26T10:55:46.840Z,96598.06
2023-03-26T11:00:48.172Z,96607.50
2023-03-26T11:05:49.540Z,96610.00
2023-03-26T11:10:50.956Z,96627.69
2023-03-26T11:15:52.195Z,96625.03
2023-03-26T11:20:53.657Z,96620.75
2023-03-26T11:25:55.100Z,96630.94
2023-03-26T11:30:56.574Z,96628.94
2023-03-26T11:35:58.099Z,96641.91
2023-03-26T11:40:59.312Z,96633.38
2023-03-26T11:46:00.611Z,96629.78
2023-03-26T11:51:01.885Z,96628.34
2023-03-26T11:56:04.123Z,96626.81
2023-03-26T12:01:05.445Z,96619.53
2023-03-26T12:06:06.695Z,96593.22
2023-03-26T12:11:08.889Z,96583.38
2023-03-26T12:16:10.311Z,96563.28
2023-03-26T12:21:11.555Z,96545.06
2023-03-26T12:26:13.183Z,96539.00
2023-03-26T12:31:20.570Z,96530.81
2023-03-26T12:36:23.268Z,96532.56
2023-03-26T12:44:44.554Z,96515.00
2023-03-26T12:48:00.391Z,96497.66
2023-03-26T12:52:10.829Z,96496.25
2023-03-26T12:57:13.415Z,96489.00
2023-03-26T13:02:14.827Z,96469.19
2023-03-26T13:07:16.092Z,96471.00
2023-03-26T13:12:17.400Z,96466.44
2023-03-26T13:17:18.765Z,96455.88
2023-03-26T13:22:20.154Z,96443.53
2023-03-26T13:27:21.430Z,96426.63
2023-03-26T13:32:22.719Z,96419.66
2023-03-26T13:37:24.506Z,96407.78
2023-03-26T13:42:26.684Z,96406.34
2023-03-26T13:47:28.001Z,96391.78
2023-03-26T13:52:29.238Z,96374.97
2023-03-26T13:57:31.898Z,96381.34
2023-03-26T14:02:33.192Z,96365.09
2023-03-26T14:07:34.476Z,96363.91
2023-03-26T14:12:35.697Z,96342.72
2023-03-26T14:17:38.425Z,96321.50
2023-03-26T14:22:39.781Z,96297.69
2023-03-26T14:27:41.127Z,96279.75
2023-03-26T14:32:42.400Z,96258.81
2023-03-26T14:37:44.004Z,96259.63
2023-03-26T14:42:45.830Z,96273.66
2023-03-26T14:47:47.162Z,96255.63
2023-03-26T14:52:51.769Z,96239.09
2023-03-26T14:57:53.263Z,96220.44
2023-03-26T15:02:54.574Z,96207.72
2023-03-26T15:07:55.840Z,96209.69
2023-03-26T15:12:57.073Z,96186.28
2023-03-26T15:17:58.414Z,96194.69
2023-03-26T15:22:59.701Z,96189.88
2023-03-26T15:28:01.205Z,96178.66
2023-03-26T15:33:03.767Z,96180.56
2023-03-26T15:38:05.289Z,96197.16
2023-03-26T15:43:06.865Z,96234.91
2023-03-26T15:48:10.518Z,96242.97
2023-03-26T15:53:12.530Z,96264.91
2023-03-26T15:58:13.904Z,96264.16
2023-03-26T16:03:15.554Z,96267.56
2023-03-26T16:08:16.835Z,96259.16
2023-03-26T16:13:19.013Z,96260.56
2023-03-26T16:18:22.772Z,96247.81
2023-03-26T16:23:24.085Z,96238.75
2023-03-26T16:28:25.437Z,96222.47
2023-03-26T16:33:27.127Z,96220.72
2023-03-26T16:38:28.382Z,96207.59
2023-03-26T16:43:29.646Z,96195.31
2023-03-26T16:48:31.242Z,96187.75
2023-03-26T16:53:32.611Z,96182.31
2023-03-26T16:58:34.001Z,96201.50
2023-03-26T17:03:37.776Z,96187.03
2023-03-26T17:08:39.137Z,96200.28
2023-03-26T17:13:40.413Z,96195.22
2023-03-26T17:18:41.980Z,96207.31
2023-03-26T17:23:43.302Z,96215.63
2023-03-26T17:28:44.653Z,96216.31
2023-03-26T17:33:46.020Z,96224.44
2023-03-26T17:38:47.296Z,96236.56
2023-03-26T17:43:50.104Z,96235.72
2023-03-26T17:48:51.343Z,96227.38
2023-03-26T17:53:53.070Z,96228.22
2023-03-26T17:58:58.653Z,96232.59
2023-03-26T18:04:12.463Z,96249.25
2023-03-26T18:09:13.812Z,96256.88
2023-03-26T18:14:15.129Z,96257.75
2023-03-26T18:19:19.716Z,96263.75
2023-03-26T18:24:21.843Z,96291.53
2023-03-26T18:29:26.115Z,96299.97
2023-03-26T18:34:27.673Z,96309.72
2023-03-26T18:39:29.252Z,96313.25
2023-03-26T18:44:30.995Z,96309.31
2023-03-26T18:49:32.274Z,96300.88
2023-03-26T18:54:33.536Z,96316.47
2023-03-26T18:59:35.100Z,96320.41
2023-03-26T19:04:37.215Z,96343.19
2023-03-26T19:09:38.760Z,96332.41
2023-03-26T19:14:40.201Z,96352.84
2023-03-26T19:19:42.693Z,96337.38
2023-03-26T19:24:43.997Z,96337.97
2023-03-26T19:29:45.588Z,96339.38
2023-03-26T19:34:48.187Z,96335.00
2023-03-26T19:39:49.457Z,96341.03
2023-03-26T19:44:51.651Z,96344.16
2023-03-26T19:49:56.175Z,96336.47
2023-03-26T19:54:59.538Z,96341.34
2023-03-26T20:00:01.704Z,96347.25
2023-03-26T20:05:02.967Z,96360.34
2023-03-26T20:10:05.675Z,96347.34
2023-03-26T20:15:07.300Z,96353.50
2023-03-26T20:20:20.972Z,96374.59
2023-03-26T20:25:22.190Z,96373.00
2023-03-26T20:30:36.860Z,96371.13
2023-03-26T20:35:39.072Z,96379.19
2023-03-26T20:40:40.416Z,96405.06
2023-03-26T20:45:41.719Z,96408.50
2023-03-26T20:50:50.253Z,96405.22
2023-03-26T20:55:52.121Z,96406.75
2023-03-26T21:00:55.382Z,96402.94
2023-03-26T21:05:56.792Z,96393.63
2023-03-26T21:11:02.024Z,96388.44
2023-03-26T21:16:03.643Z,96385.13
2023-03-26T21:21:18.091Z,96383.66
2023-03-26T21:26:23.852Z,96384.16
2023-03-26T21:31:26.535Z,96383.66
2023-03-26T21:36:28.184Z,96384.97
2023-03-26T21:41:29.522Z,96396.78
2023-03-26T21:46:31.829Z,96390.06
2023-03-26T21:51:34.015Z,96394.84
2023-03-26T21:56:35.596Z,96401.50
2023-03-26T22:01:36.955Z,96405.78
2023-03-26T22:06:38.281Z,96404.78
2023-03-26T22:11:39.701Z,96409.31
2023-03-26T22:16:41.533Z,96411.28
2023-03-26T22:21:42.866Z,96405.66
2023-03-26T22:26:44.096Z,96409.72
2023-03-26T22:31:45.378Z,96405.00
2023-03-26T22:36:46.708Z,96402.56
2023-03-26T22:41:47.974Z,96404.41
2023-03-26T22:46:51.329Z,96402.34
2023-03-26T22:51:52.951Z,96406.94
2023-03-26T22:56:55.475Z,96398.06
2023-03-26T23:01:56.925Z,96399.75
2023-03-26T23:06:58.206Z,96395.84
2023-03-26T23:11:59.567Z,96395.69
2023-03-26T23:17:01.513Z,96403.00
2023-03-26T23:22:02.790Z,96402.91
2023-03-26T23:27:04.613Z,96398.59
2023-03-26T23:32:23.365Z,96401.47
2023-03-26T23:37:25.328Z,96414.31
2023-03-26T23:42:28.265Z,96405.91
2023-03-26T23:47:34.942Z,96397.19
2023-03-26T23:52:37.555Z,96392.34
2023-03-26T23:57:38.819Z,96394.63
